Strona główna
Zdjęcia satelitarne 15-dni prognozyKlimatMeteorologia morska Cyklony Błyskawica LotniskoFAQ Gazetka O
Pogoda : Europa Afryka Ameryka Północna Ameryka Południowa Azja Australia-Oceania Inny
Języki Kontakt

Katowice, Polska

Pyrzowice

Szerokość geograficzna: 50-28-27N, Długość geograficzna: 019-04-48E, wysokość: 284 m


METAR: EPKT 271100Z 10011KT 9999 SCT013 02/M01 Q1020
TAF: EPKT 270830Z 2709/2718 11008KT 6000 BKN013 BECMG 2709/2711 BKN025

czas: 12:34 (11:34 UTC)

Aktualna obserwacja pogody

Raport powstał 34 minut temu, godzina 11:00 UTC
Wiatr 11 kt od wschód
Temperatura 2°C
Wilgotność 80%
Ciśnienie 1020 hPa
Widzialność 10 km lub więcej
Rozproszone chmury na wysokości 1300 ft

Jednostka miary

Prognoza

Raport powstał 3 godziny i 4 minut temu, godzina 08:30 UTC
Prognoza ważna od 27 godzina 09 UTC do 27 godzina 18 UTC
Wiatr 8 kt od wschodnio-południowy wschód
Widzialność: 6000 m
Przerywane chmury na wysokości 1300 ft
Stopniowe zmiany
od 27 godzina 09 UTC do 27 godzina 11 UTC
Przerywane chmury na wysokości 2500 ft
Informacje na tej stronie internetowej podlegają klauzuli o wyłączeniu odpowiedzialności
Pogoda : Europa Afryka Ameryka Północna Ameryka Południowa Azja Australia-Oceania Inny
Zdjęcia satelitarne 15-dni prognozyKlimatMeteorologia morska Cyklony Błyskawica LotniskoFAQ Języki Kontakt Gazetka O